createdAt,value
2022-08-28T00:00:44.946Z,9.32
2022-08-28T00:03:13.281Z,8.93
2022-08-28T00:05:41.863Z,9.80
2022-08-28T00:08:12.990Z,8.75
2022-08-28T00:10:41.380Z,9.60
2022-08-28T00:13:15.336Z,9.23
2022-08-28T00:15:42.458Z,9.00
2022-08-28T00:18:09.393Z,9.65
2022-08-28T00:20:37.158Z,8.77
2022-08-28T00:23:06.158Z,9.50
2022-08-28T00:25:34.127Z,9.60
2022-08-28T00:28:08.478Z,9.65
2022-08-28T00:30:46.343Z,10.02
2022-08-28T00:33:18.454Z,9.68
2022-08-28T00:35:47.878Z,9.77
2022-08-28T00:38:18.556Z,9.60
2022-08-28T00:40:50.447Z,10.23
2022-08-28T00:43:45.600Z,8.98
2022-08-28T00:46:20.490Z,8.65
2022-08-28T00:48:47.853Z,9.23
2022-08-28T00:51:55.555Z,9.20
2022-08-28T00:54:23.427Z,10.35
2022-08-28T00:56:51.958Z,9.93
2022-08-28T00:59:23.270Z,10.07
2022-08-28T01:04:19.234Z,10.25
2022-08-28T01:06:48.474Z,8.52
2022-08-28T01:09:15.722Z,9.35
2022-08-28T01:11:51.446Z,9.80
2022-08-28T01:14:22.130Z,9.77
2022-08-28T01:16:55.395Z,9.00
2022-08-28T01:19:38.018Z,9.68
2022-08-28T01:22:12.331Z,9.40
2022-08-28T01:24:40.355Z,10.10
2022-08-28T01:27:07.169Z,10.05
2022-08-28T01:29:34.390Z,9.35
2022-08-28T01:32:01.866Z,9.48
2022-08-28T01:34:29.062Z,8.73
2022-08-28T01:36:55.889Z,9.73
2022-08-28T01:39:27.194Z,9.82
2022-08-28T01:41:55.611Z,9.30
2022-08-28T01:44:25.729Z,8.95
2022-08-28T01:46:54.161Z,9.23
2022-08-28T01:49:22.406Z,9.80
2022-08-28T01:51:49.816Z,11.52
2022-08-28T01:54:19.946Z,10.90
2022-08-28T01:56:47.741Z,10.35
2022-08-28T01:59:15.614Z,10.02
2022-08-28T02:01:43.429Z,9.88
2022-08-28T02:04:11.600Z,8.50
2022-08-28T02:06:38.614Z,8.70
2022-08-28T02:09:07.178Z,9.25
2022-08-28T02:11:44.360Z,9.45
2022-08-28T02:14:13.936Z,9.52
2022-08-28T02:16:41.061Z,9.60
2022-08-28T02:19:08.060Z,8.68
2022-08-28T02:21:35.527Z,9.25
2022-08-28T02:24:03.214Z,8.98
2022-08-28T02:26:31.678Z,9.70
2022-08-28T02:28:58.937Z,9.55
2022-08-28T02:31:27.281Z,10.00
2022-08-28T02:33:55.498Z,10.00
2022-08-28T02:36:23.169Z,9.18
2022-08-28T02:38:56.842Z,9.57
2022-08-28T02:41:24.752Z,8.32
2022-08-28T02:43:51.634Z,8.60
2022-08-28T02:46:18.689Z,9.15
2022-08-28T02:48:45.612Z,8.75
2022-08-28T02:51:13.686Z,8.73
2022-08-28T02:53:40.775Z,9.57
2022-08-28T02:56:08.593Z,9.23
2022-08-28T02:58:36.171Z,9.13
2022-08-28T03:01:06.944Z,9.90
2022-08-28T03:03:33.946Z,9.32
2022-08-28T03:06:03.117Z,10.48
2022-08-28T03:08:32.138Z,9.55
2022-08-28T03:11:00.457Z,9.98
2022-08-28T03:13:27.588Z,9.43
2022-08-28T03:15:56.229Z,9.52
2022-08-28T03:18:25.881Z,9.90
2022-08-28T03:20:53.979Z,9.68
2022-08-28T03:23:26.316Z,10.63
2022-08-28T03:26:10.277Z,11.13
2022-08-28T03:28:48.946Z,10.02
2022-08-28T03:31:20.113Z,10.20
2022-08-28T03:33:47.470Z,9.95
2022-08-28T03:36:18.984Z,9.70
2022-08-28T03:38:46.132Z,10.30
2022-08-28T03:41:16.306Z,9.52
2022-08-28T03:43:43.506Z,9.68
2022-08-28T03:46:15.172Z,10.13
2022-08-28T03:48:44.893Z,9.10
2022-08-28T03:51:16.159Z,9.50
2022-08-28T03:53:45.133Z,9.77
2022-08-28T03:56:16.070Z,9.38
2022-08-28T03:58:43.124Z,10.30
2022-08-28T04:01:10.164Z,9.25
2022-08-28T04:03:37.017Z,9.52
2022-08-28T04:06:04.318Z,9.63
2022-08-28T04:08:31.226Z,9.18
2022-08-28T04:11:00.731Z,9.02
2022-08-28T04:13:28.901Z,9.13
2022-08-28T04:16:11.304Z,9.65
2022-08-28T04:18:42.275Z,10.27
2022-08-28T04:21:12.426Z,10.10
2022-08-28T04:23:42.667Z,10.48
2022-08-28T04:26:12.307Z,9.43
2022-08-28T04:28:39.038Z,9.38
2022-08-28T04:31:07.599Z,9.48
2022-08-28T04:33:35.790Z,10.20
2022-08-28T04:36:09.205Z,10.45
2022-08-28T04:38:42.970Z,10.45
2022-08-28T04:41:13.962Z,10.55
2022-08-28T04:43:41.770Z,11.02
2022-08-28T04:46:12.586Z,10.57
2022-08-28T04:48:41.101Z,10.43
2022-08-28T04:51:11.182Z,10.75
2022-08-28T04:53:39.185Z,10.30
2022-08-28T04:56:08.673Z,10.02
2022-08-28T04:58:36.317Z,9.98
2022-08-28T05:01:08.839Z,10.32
2022-08-28T05:03:35.850Z,10.45
2022-08-28T05:06:03.907Z,10.93
2022-08-28T05:08:31.951Z,10.82
2022-08-28T05:11:08.587Z,10.88
2022-08-28T05:13:35.686Z,10.35
2022-08-28T05:16:04.007Z,10.25
2022-08-28T05:18:30.731Z,10.07
2022-08-28T05:20:58.666Z,9.95
2022-08-28T05:23:26.225Z,9.10
2022-08-28T05:25:53.561Z,11.43
2022-08-28T05:28:21.871Z,10.23
2022-08-28T05:30:48.799Z,9.55
2022-08-28T05:33:16.187Z,11.40
2022-08-28T05:35:45.413Z,10.60
2022-08-28T05:38:15.137Z,10.55
2022-08-28T05:40:45.066Z,9.73
2022-08-28T05:43:14.121Z,11.10
2022-08-28T05:45:41.769Z,10.10
2022-08-28T05:48:09.043Z,9.27
2022-08-28T05:50:39.303Z,10.02
2022-08-28T05:53:10.834Z,10.43
2022-08-28T05:55:40.470Z,10.20
2022-08-28T05:58:25.579Z,10.07
2022-08-28T06:00:52.414Z,10.13
2022-08-28T06:03:19.197Z,9.07
2022-08-28T06:05:46.053Z,9.45
2022-08-28T06:08:13.355Z,10.30
2022-08-28T06:10:44.837Z,10.18
2022-08-28T06:13:15.278Z,9.55
2022-08-28T06:15:43.194Z,9.85
2022-08-28T06:18:12.041Z,9.20
2022-08-28T06:20:43.178Z,10.50
2022-08-28T06:25:39.458Z,9.25
2022-08-28T06:28:07.625Z,9.30
2022-08-28T06:30:40.088Z,9.15
2022-08-28T06:33:09.703Z,9.25
2022-08-28T06:35:54.110Z,9.70
2022-08-28T06:38:24.055Z,10.32
2022-08-28T06:40:56.126Z,10.23
2022-08-28T06:43:26.743Z,9.52
2022-08-28T06:45:55.806Z,10.00
2022-08-28T06:48:27.332Z,9.93
2022-08-28T06:50:55.942Z,9.50
2022-08-28T06:53:26.276Z,9.20
2022-08-28T06:56:00.715Z,9.95
2022-08-28T06:58:28.415Z,9.75
2022-08-28T07:01:26.844Z,10.00
2022-08-28T07:03:55.748Z,9.27
2022-08-28T07:06:24.030Z,9.40
2022-08-28T07:08:51.279Z,9.40
2022-08-28T07:11:28.779Z,9.65
2022-08-28T07:13:57.459Z,10.15
2022-08-28T07:16:30.837Z,9.02
2022-08-28T07:18:58.677Z,8.98
2022-08-28T07:21:26.854Z,8.95
2022-08-28T07:23:54.986Z,9.20
2022-08-28T07:26:23.778Z,8.27
2022-08-28T07:28:53.182Z,9.63
2022-08-28T07:31:37.705Z,8.75
2022-08-28T07:34:04.956Z,9.52
2022-08-28T07:36:32.166Z,8.98
2022-08-28T07:38:59.837Z,8.40
2022-08-28T07:41:29.700Z,9.00
2022-08-28T07:44:15.231Z,9.43
2022-08-28T07:46:43.347Z,8.30
2022-08-28T07:49:11.221Z,9.38
2022-08-28T07:51:38.177Z,8.68
2022-08-28T07:54:05.505Z,8.88
2022-08-28T07:56:33.034Z,8.90
2022-08-28T07:59:01.298Z,9.23
2022-08-28T08:01:30.912Z,9.02
2022-08-28T08:04:01.495Z,8.45
2022-08-28T08:06:33.818Z,9.52
2022-08-28T08:09:02.295Z,8.98
2022-08-28T08:11:32.171Z,8.60
2022-08-28T08:14:05.440Z,8.75
2022-08-28T08:16:38.909Z,8.65
2022-08-28T08:19:06.755Z,8.00
2022-08-28T08:21:33.525Z,7.72
2022-08-28T08:24:00.187Z,7.95
2022-08-28T08:26:30.741Z,7.68
2022-08-28T08:28:58.801Z,8.57
2022-08-28T08:31:35.199Z,7.75
2022-08-28T08:34:05.667Z,7.57
2022-08-28T08:36:34.303Z,8.00
2022-08-28T08:39:01.493Z,7.32
2022-08-28T08:41:51.740Z,7.10
2022-08-28T08:44:33.482Z,8.05
2022-08-28T08:47:19.274Z,6.93
2022-08-28T08:50:01.684Z,7.30
2022-08-28T08:52:29.062Z,7.28
2022-08-28T08:55:06.206Z,8.10
2022-08-28T08:57:36.694Z,7.18
2022-08-28T09:00:14.981Z,7.07
2022-08-28T09:03:19.836Z,7.35
2022-08-28T09:05:55.728Z,7.40
2022-08-28T09:08:36.727Z,7.28
2022-08-28T09:11:36.543Z,6.72
2022-08-28T09:14:33.886Z,7.40
2022-08-28T09:17:01.659Z,8.40
2022-08-28T09:19:29.731Z,7.95
2022-08-28T09:21:56.683Z,7.47
2022-08-28T09:24:29.029Z,7.25
2022-08-28T09:26:58.817Z,7.07
2022-08-28T09:29:29.482Z,7.53
2022-08-28T09:31:56.960Z,7.20
2022-08-28T09:34:38.636Z,7.57
2022-08-28T09:37:08.250Z,6.72
2022-08-28T09:39:37.917Z,6.75
2022-08-28T09:42:32.477Z,7.25
2022-08-28T09:45:09.151Z,6.65
2022-08-28T09:47:46.254Z,6.68
2022-08-28T09:50:31.266Z,6.38
2022-08-28T09:53:10.405Z,6.63
2022-08-28T09:56:07.411Z,6.78
2022-08-28T09:58:44.318Z,6.32
2022-08-28T10:01:32.880Z,6.43
2022-08-28T10:04:36.761Z,6.15
2022-08-28T10:07:15.570Z,6.10
2022-08-28T10:10:13.012Z,6.10
2022-08-28T10:13:02.196Z,5.63
2022-08-28T10:15:52.959Z,6.00
2022-08-28T10:18:39.560Z,5.63
2022-08-28T10:21:18.097Z,5.57
2022-08-28T10:23:53.703Z,5.60
2022-08-28T10:26:32.622Z,5.63
2022-08-28T10:29:35.012Z,5.85
2022-08-28T10:32:14.377Z,5.78
2022-08-28T10:34:41.072Z,5.60
2022-08-28T10:37:31.823Z,5.72
2022-08-28T10:40:02.412Z,5.45
2022-08-28T10:42:45.405Z,4.95
2022-08-28T10:45:16.786Z,5.20
2022-08-28T10:47:50.078Z,5.13
2022-08-28T10:50:25.441Z,5.65
2022-08-28T10:53:02.670Z,5.88
2022-08-28T10:55:51.635Z,5.78
2022-08-28T10:58:24.954Z,5.70
2022-08-28T11:01:01.214Z,5.45
2022-08-28T11:03:35.582Z,5.82
2022-08-28T11:06:16.133Z,5.30
2022-08-28T11:08:53.091Z,5.40
2022-08-28T11:11:44.936Z,5.65
2022-08-28T11:14:47.611Z,5.40
2022-08-28T11:17:30.375Z,5.53
2022-08-28T11:20:22.709Z,5.35
2022-08-28T11:23:15.693Z,5.35
2022-08-28T11:25:54.889Z,5.50
2022-08-28T11:28:25.489Z,5.28
2022-08-28T11:30:58.279Z,5.22
2022-08-28T11:33:42.794Z,5.18
2022-08-28T11:36:18.954Z,5.07
2022-08-28T11:38:45.629Z,5.22
2022-08-28T11:41:20.850Z,5.60
2022-08-28T11:43:52.360Z,5.25
2022-08-28T11:46:56.994Z,5.43
2022-08-28T11:49:23.623Z,5.03
2022-08-28T11:52:15.034Z,5.20
2022-08-28T11:55:15.555Z,5.28
2022-08-28T12:00:57.726Z,5.57
2022-08-28T12:03:43.498Z,5.30
2022-08-28T12:06:13.262Z,5.63
2022-08-28T12:08:46.789Z,5.45
2022-08-28T12:11:41.812Z,5.22
2022-08-28T12:14:34.026Z,5.25
2022-08-28T12:17:08.687Z,4.70
2022-08-28T12:19:51.191Z,5.13
2022-08-28T12:22:26.689Z,5.00
2022-08-28T12:25:00.776Z,5.28
2022-08-28T12:27:29.271Z,5.40
2022-08-28T12:30:01.156Z,4.55
2022-08-28T12:33:02.254Z,5.50
2022-08-28T12:35:30.307Z,5.32
2022-08-28T12:37:57.296Z,4.95
2022-08-28T12:40:50.441Z,5.13
2022-08-28T12:43:35.599Z,4.78
2022-08-28T12:46:19.909Z,4.65
2022-08-28T12:48:59.512Z,4.75
2022-08-28T12:51:37.438Z,4.72
2022-08-28T12:54:07.492Z,4.72
2022-08-28T12:56:37.227Z,5.20
2022-08-28T12:59:27.048Z,4.47
2022-08-28T13:02:01.422Z,4.47
2022-08-28T13:04:38.717Z,4.65
2022-08-28T13:07:13.495Z,4.57
2022-08-28T13:09:48.901Z,4.47
2022-08-28T13:12:37.297Z,5.13
2022-08-28T13:15:12.890Z,4.70
2022-08-28T13:17:57.982Z,4.78
2022-08-28T13:20:36.403Z,4.55
2022-08-28T13:23:03.903Z,4.57
2022-08-28T13:25:36.613Z,4.30
2022-08-28T13:28:17.615Z,4.78
2022-08-28T13:30:58.783Z,4.50
2022-08-28T13:33:27.729Z,4.55
2022-08-28T13:35:57.071Z,4.65
2022-08-28T13:38:25.134Z,4.20
2022-08-28T13:40:59.509Z,4.40
2022-08-28T13:43:29.841Z,3.95
2022-08-28T13:45:57.367Z,4.27
2022-08-28T13:48:26.338Z,4.25
2022-08-28T13:50:58.478Z,4.38
2022-08-28T13:53:25.530Z,4.47
2022-08-28T13:55:52.183Z,4.20
2022-08-28T13:58:19.639Z,3.97
2022-08-28T14:00:49.643Z,3.83
2022-08-28T14:03:35.141Z,3.78
2022-08-28T14:06:04.315Z,3.95
2022-08-28T14:08:30.988Z,3.95
2022-08-28T14:10:57.726Z,4.05
2022-08-28T14:13:27.479Z,3.40
2022-08-28T14:15:55.962Z,3.95
2022-08-28T14:18:24.396Z,3.83
2022-08-28T14:20:51.510Z,3.70
2022-08-28T14:23:18.264Z,3.88
2022-08-28T14:25:46.417Z,4.18
2022-08-28T14:28:16.575Z,3.80
2022-08-28T14:30:48.674Z,3.80
2022-08-28T14:33:18.515Z,3.80
2022-08-28T14:35:46.299Z,3.92
2022-08-28T14:38:13.305Z,3.78
2022-08-28T14:40:42.665Z,4.15
2022-08-28T14:43:10.833Z,3.80
2022-08-28T14:45:48.428Z,3.85
2022-08-28T14:48:17.728Z,3.92
2022-08-28T14:50:46.574Z,4.18
2022-08-28T14:53:14.464Z,3.60
2022-08-28T14:55:47.635Z,3.67
2022-08-28T14:58:16.282Z,3.60
2022-08-28T15:00:48.647Z,3.70
2022-08-28T15:03:16.701Z,4.40
2022-08-28T15:05:43.522Z,3.72
2022-08-28T15:08:12.546Z,3.45
2022-08-28T15:10:41.901Z,4.28
2022-08-28T15:13:10.363Z,4.30
2022-08-28T15:15:39.379Z,3.88
2022-08-28T15:18:07.050Z,3.70
2022-08-28T15:20:46.699Z,3.92
2022-08-28T15:23:15.062Z,3.97
2022-08-28T15:25:42.286Z,3.90
2022-08-28T15:28:09.089Z,4.38
2022-08-28T15:30:36.798Z,4.38
2022-08-28T15:33:04.191Z,4.00
2022-08-28T15:35:33.634Z,4.20
2022-08-28T15:38:00.360Z,3.80
2022-08-28T15:40:45.445Z,4.40
2022-08-28T15:43:12.233Z,4.43
2022-08-28T15:45:41.041Z,3.80
2022-08-28T15:48:09.175Z,3.97
2022-08-28T15:50:36.401Z,4.20
2022-08-28T15:53:03.573Z,4.07
2022-08-28T15:55:33.899Z,3.88
2022-08-28T15:58:03.971Z,4.20
2022-08-28T16:00:34.263Z,4.05
2022-08-28T16:03:01.259Z,3.70
2022-08-28T16:05:32.246Z,3.75
2022-08-28T16:08:02.252Z,3.83
2022-08-28T16:10:29.728Z,4.05
2022-08-28T16:12:57.647Z,3.90
2022-08-28T16:15:24.570Z,3.88
2022-08-28T16:17:51.271Z,4.07
2022-08-28T16:20:18.259Z,3.60
2022-08-28T16:22:45.630Z,3.83
2022-08-28T16:25:13.086Z,3.95
2022-08-28T16:27:39.701Z,3.40
2022-08-28T16:30:08.179Z,3.85
2022-08-28T16:32:42.734Z,3.72
2022-08-28T16:35:14.922Z,3.80
2022-08-28T16:37:42.045Z,4.07
2022-08-28T16:40:09.557Z,4.10
2022-08-28T16:42:36.351Z,4.00
2022-08-28T16:45:04.304Z,4.30
2022-08-28T16:47:33.069Z,4.47
2022-08-28T16:50:01.818Z,4.15
2022-08-28T16:52:28.414Z,4.40
2022-08-28T16:54:55.141Z,4.35
2022-08-28T16:57:22.031Z,4.43
2022-08-28T16:59:53.065Z,4.20
2022-08-28T17:02:24.905Z,4.28
2022-08-28T17:04:55.714Z,4.05
2022-08-28T17:07:22.818Z,5.28
2022-08-28T17:09:49.446Z,4.63
2022-08-28T17:12:16.631Z,4.82
2022-08-28T17:14:43.825Z,4.90
2022-08-28T17:17:11.353Z,5.55
2022-08-28T17:19:38.404Z,5.28
2022-08-28T17:22:27.116Z,5.30
2022-08-28T17:24:54.652Z,5.43
2022-08-28T17:27:22.568Z,5.32
2022-08-28T17:29:50.244Z,5.35
2022-08-28T17:32:17.521Z,4.88
2022-08-28T17:34:44.286Z,5.00
2022-08-28T17:37:11.317Z,5.05
2022-08-28T17:39:38.198Z,4.80
2022-08-28T17:42:05.017Z,5.50
2022-08-28T17:44:31.745Z,5.15
2022-08-28T17:46:58.406Z,5.18
2022-08-28T17:49:26.867Z,4.88
2022-08-28T17:51:53.539Z,5.25
2022-08-28T17:54:21.652Z,5.50
2022-08-28T17:56:49.456Z,4.78
2022-08-28T17:59:16.255Z,5.07
2022-08-28T18:01:44.876Z,5.30
2022-08-28T18:04:13.246Z,5.13
2022-08-28T18:06:40.502Z,4.93
2022-08-28T18:09:08.869Z,4.85
2022-08-28T18:11:37.413Z,5.15
2022-08-28T18:14:04.334Z,4.88
2022-08-28T18:16:33.374Z,4.70
2022-08-28T18:19:01.218Z,4.95
2022-08-28T18:21:28.588Z,5.40
2022-08-28T18:23:55.233Z,5.30
2022-08-28T18:26:22.211Z,5.53
2022-08-28T18:28:49.719Z,5.25
2022-08-28T18:31:17.187Z,5.47
2022-08-28T18:33:44.006Z,5.60
2022-08-28T18:36:13.579Z,5.35
2022-08-28T18:38:40.707Z,5.15
2022-08-28T18:41:09.030Z,5.90
2022-08-28T18:43:37.242Z,5.80
2022-08-28T18:46:05.277Z,5.40
2022-08-28T18:48:32.882Z,5.85
2022-08-28T18:50:59.498Z,5.75
2022-08-28T18:53:27.855Z,5.30
2022-08-28T18:55:56.046Z,5.95
2022-08-28T18:58:23.360Z,5.95
2022-08-28T19:00:51.047Z,6.00
2022-08-28T19:03:17.714Z,6.00
2022-08-28T19:05:44.435Z,6.10
2022-08-28T19:08:11.397Z,6.60
2022-08-28T19:10:38.518Z,6.05
2022-08-28T19:13:06.653Z,5.90
2022-08-28T19:15:34.288Z,6.03
2022-08-28T19:18:01.309Z,6.43
2022-08-28T19:20:29.127Z,6.50
2022-08-28T19:22:57.310Z,6.57
2022-08-28T19:25:28.571Z,6.68
2022-08-28T19:27:59.190Z,6.20
2022-08-28T19:30:28.087Z,5.90
2022-08-28T19:32:54.885Z,6.38
2022-08-28T19:35:24.194Z,6.43
2022-08-28T19:37:52.507Z,6.28
2022-08-28T19:40:20.767Z,6.40
2022-08-28T19:42:47.945Z,6.22
2022-08-28T19:45:15.186Z,6.25
2022-08-28T19:47:42.512Z,5.65
2022-08-28T19:50:12.769Z,6.20
2022-08-28T19:52:40.064Z,6.38
2022-08-28T19:55:07.868Z,6.22
2022-08-28T19:57:34.942Z,6.35
2022-08-28T20:00:02.470Z,6.20
2022-08-28T20:02:29.399Z,6.30
2022-08-28T20:04:56.239Z,8.77
2022-08-28T20:07:24.731Z,5.88
2022-08-28T20:09:52.019Z,6.40
2022-08-28T20:12:19.139Z,6.30
2022-08-28T20:14:46.341Z,6.70
2022-08-28T20:17:13.897Z,6.63
2022-08-28T20:19:41.154Z,12.57
2022-08-28T20:22:08.090Z,6.68
2022-08-28T20:24:35.014Z,7.00
2022-08-28T20:27:01.721Z,6.25
2022-08-28T20:29:29.131Z,7.00
2022-08-28T20:31:55.825Z,6.07
2022-08-28T20:34:23.150Z,6.80
2022-08-28T20:36:49.954Z,6.40
2022-08-28T20:39:17.402Z,14.45
2022-08-28T20:41:45.875Z,32.47
2022-08-28T20:44:15.385Z,6.78
2022-08-28T20:46:42.561Z,6.90
2022-08-28T20:49:11.404Z,6.72
2022-08-28T20:51:56.768Z,6.68
2022-08-28T20:54:25.947Z,7.45
2022-08-28T20:56:52.954Z,6.75
2022-08-28T20:59:20.812Z,7.20
2022-08-28T21:01:50.693Z,6.80
2022-08-28T21:04:18.635Z,6.65
2022-08-28T21:06:46.600Z,6.88
2022-08-28T21:09:17.365Z,10.40
2022-08-28T21:11:44.238Z,24.27
2022-08-28T21:14:11.249Z,8.02
2022-08-28T21:16:39.194Z,11.13
2022-08-28T21:19:16.047Z,6.70
2022-08-28T21:21:44.023Z,7.13
2022-08-28T21:24:13.086Z,7.07
2022-08-28T21:26:43.126Z,7.03
2022-08-28T21:29:12.488Z,6.85
2022-08-28T21:31:42.626Z,7.38
2022-08-28T21:34:10.411Z,8.70
2022-08-28T21:36:38.264Z,7.45
2022-08-28T21:39:05.978Z,7.40
2022-08-28T21:41:33.084Z,7.55
2022-08-28T21:43:59.776Z,8.00
2022-08-28T21:46:27.743Z,7.20
2022-08-28T21:48:56.204Z,7.18
2022-08-28T21:51:24.117Z,12.38
2022-08-28T21:53:51.933Z,7.25
2022-08-28T21:56:27.777Z,7.82
2022-08-28T21:58:56.309Z,7.18
2022-08-28T22:01:25.972Z,7.75
2022-08-28T22:03:54.690Z,7.88
2022-08-28T22:06:23.541Z,7.15
2022-08-28T22:08:51.621Z,7.35
2022-08-28T22:11:24.551Z,7.53
2022-08-28T22:13:53.713Z,7.20
2022-08-28T22:16:21.301Z,7.65
2022-08-28T22:18:48.028Z,7.43
2022-08-28T22:21:35.985Z,7.72
2022-08-28T22:24:03.381Z,7.43
2022-08-28T22:26:30.155Z,6.82
2022-08-28T22:28:57.027Z,7.47
2022-08-28T22:31:24.754Z,7.90
2022-08-28T22:33:52.406Z,7.28
2022-08-28T22:36:20.458Z,7.55
2022-08-28T22:38:53.333Z,7.38
2022-08-28T22:41:20.711Z,7.60
2022-08-28T22:43:49.749Z,7.85
2022-08-28T22:46:18.686Z,7.53
2022-08-28T22:48:45.962Z,7.32
2022-08-28T22:51:18.340Z,7.70
2022-08-28T22:53:45.734Z,8.13
2022-08-28T22:56:13.973Z,8.13
2022-08-28T22:58:40.799Z,7.72
2022-08-28T23:01:15.155Z,8.18
2022-08-28T23:03:42.323Z,7.68
2022-08-28T23:06:09.418Z,8.02
2022-08-28T23:08:36.517Z,7.55
2022-08-28T23:11:03.759Z,7.95
2022-08-28T23:13:31.306Z,7.90
2022-08-28T23:15:58.830Z,7.47
2022-08-28T23:18:25.779Z,7.85
2022-08-28T23:20:55.159Z,7.85
2022-08-28T23:23:22.913Z,7.80
2022-08-28T23:25:50.442Z,7.85
2022-08-28T23:28:18.431Z,7.63
2022-08-28T23:30:48.498Z,8.35
2022-08-28T23:33:23.930Z,8.50
2022-08-28T23:35:52.013Z,8.38
2022-08-28T23:38:19.293Z,8.52
2022-08-28T23:40:47.998Z,8.00
2022-08-28T23:43:15.055Z,8.20
2022-08-28T23:45:43.516Z,8.38
2022-08-28T23:48:11.175Z,8.10
2022-08-28T23:50:40.868Z,8.35
2022-08-28T23:53:08.901Z,8.40
2022-08-28T23:55:36.866Z,8.50
2022-08-28T23:58:04.057Z,7.38
